sensor_id;sensor_type;location;lat;lon;timestamp;P1;durP1;ratioP1;P2;durP2;ratioP2
69310;SDS011;56430;48.154;16.458;2023-10-31T00:01:13;5.15;;;1.30;;
69310;SDS011;56430;48.154;16.458;2023-10-31T00:03:40;3.92;;;1.23;;
69310;SDS011;56430;48.154;16.458;2023-10-31T00:06:08;6.75;;;1.20;;
69310;SDS011;56430;48.154;16.458;2023-10-31T00:08:35;5.05;;;1.15;;
69310;SDS011;56430;48.154;16.458;2023-10-31T00:11:04;10.57;;;1.20;;
69310;SDS011;56430;48.154;16.458;2023-10-31T00:13:31;5.13;;;1.33;;
69310;SDS011;56430;48.154;16.458;2023-10-31T00:15:58;5.35;;;1.50;;
69310;SDS011;56430;48.154;16.458;2023-10-31T00:18:25;4.00;;;1.17;;
69310;SDS011;56430;48.154;16.458;2023-10-31T00:20:52;2.90;;;1.02;;
69310;SDS011;56430;48.154;16.458;2023-10-31T00:23:21;8.57;;;1.33;;
69310;SDS011;56430;48.154;16.458;2023-10-31T00:25:49;4.07;;;1.10;;
69310;SDS011;56430;48.154;16.458;2023-10-31T00:28:17;6.00;;;1.42;;
69310;SDS011;56430;48.154;16.458;2023-10-31T00:30:44;5.32;;;1.20;;
69310;SDS011;56430;48.154;16.458;2023-10-31T00:33:12;5.15;;;1.30;;
69310;SDS011;56430;48.154;16.458;2023-10-31T00:35:39;4.70;;;1.27;;
69310;SDS011;56430;48.154;16.458;2023-10-31T00:38:06;4.55;;;1.20;;
69310;SDS011;56430;48.154;16.458;2023-10-31T00:40:33;5.85;;;1.10;;
69310;SDS011;56430;48.154;16.458;2023-10-31T00:43:00;2.97;;;1.17;;
69310;SDS011;56430;48.154;16.458;2023-10-31T00:45:29;5.70;;;1.23;;
69310;SDS011;56430;48.154;16.458;2023-10-31T00:47:56;5.77;;;1.30;;
69310;SDS011;56430;48.154;16.458;2023-10-31T00:50:23;4.05;;;1.25;;
69310;SDS011;56430;48.154;16.458;2023-10-31T00:52:50;3.47;;;1.20;;
69310;SDS011;56430;48.154;16.458;2023-10-31T00:55:17;5.97;;;1.30;;
69310;SDS011;56430;48.154;16.458;2023-10-31T00:57:45;3.75;;;1.40;;
69310;SDS011;56430;48.154;16.458;2023-10-31T01:00:12;3.97;;;1.10;;
69310;SDS011;56430;48.154;16.458;2023-10-31T01:02:41;2.95;;;1.15;;
69310;SDS011;56430;48.154;16.458;2023-10-31T01:05:08;3.50;;;1.20;;
69310;SDS011;56430;48.154;16.458;2023-10-31T01:07:37;4.30;;;1.13;;
69310;SDS011;56430;48.154;16.458;2023-10-31T01:10:04;4.72;;;1.38;;
69310;SDS011;56430;48.154;16.458;2023-10-31T01:12:32;2.83;;;1.00;;
69310;SDS011;56430;48.154;16.458;2023-10-31T01:14:59;5.45;;;1.33;;
69310;SDS011;56430;48.154;16.458;2023-10-31T01:17:26;4.65;;;1.20;;
69310;SDS011;56430;48.154;16.458;2023-10-31T01:19:55;7.63;;;1.42;;
69310;SDS011;56430;48.154;16.458;2023-10-31T01:22:22;5.45;;;1.33;;
69310;SDS011;56430;48.154;16.458;2023-10-31T01:24:49;6.33;;;1.40;;
69310;SDS011;56430;48.154;16.458;2023-10-31T01:27:16;4.47;;;1.27;;
69310;SDS011;56430;48.154;16.458;2023-10-31T01:29:44;4.15;;;1.10;;
69310;SDS011;56430;48.154;16.458;2023-10-31T01:32:11;3.15;;;0.85;;
69310;SDS011;56430;48.154;16.458;2023-10-31T01:34:38;4.90;;;1.33;;
69310;SDS011;56430;48.154;16.458;2023-10-31T01:37:07;3.60;;;0.90;;
69310;SDS011;56430;48.154;16.458;2023-10-31T01:39:35;4.28;;;1.10;;
69310;SDS011;56430;48.154;16.458;2023-10-31T01:42:02;5.15;;;1.30;;
69310;SDS011;56430;48.154;16.458;2023-10-31T01:44:30;7.60;;;1.45;;
69310;SDS011;56430;48.154;16.458;2023-10-31T01:46:57;3.88;;;1.30;;
69310;SDS011;56430;48.154;16.458;2023-10-31T01:49:24;3.93;;;0.90;;
69310;SDS011;56430;48.154;16.458;2023-10-31T01:51:51;6.85;;;1.45;;
69310;SDS011;56430;48.154;16.458;2023-10-31T01:54:20;4.38;;;1.30;;
69310;SDS011;56430;48.154;16.458;2023-10-31T01:56:47;5.07;;;1.00;;
69310;SDS011;56430;48.154;16.458;2023-10-31T01:59:16;4.93;;;1.15;;
69310;SDS011;56430;48.154;16.458;2023-10-31T02:01:43;6.43;;;1.80;;
69310;SDS011;56430;48.154;16.458;2023-10-31T02:04:11;7.57;;;1.20;;
69310;SDS011;56430;48.154;16.458;2023-10-31T02:06:38;4.10;;;1.05;;
69310;SDS011;56430;48.154;16.458;2023-10-31T02:09:05;6.82;;;1.35;;
69310;SDS011;56430;48.154;16.458;2023-10-31T02:11:34;4.22;;;1.00;;
69310;SDS011;56430;48.154;16.458;2023-10-31T02:14:01;6.17;;;1.33;;
69310;SDS011;56430;48.154;16.458;2023-10-31T02:16:28;5.35;;;1.38;;
69310;SDS011;56430;48.154;16.458;2023-10-31T02:18:56;2.53;;;0.80;;
69310;SDS011;56430;48.154;16.458;2023-10-31T02:21:23;4.28;;;1.10;;
69310;SDS011;56430;48.154;16.458;2023-10-31T02:23:56;6.22;;;1.27;;
69310;SDS011;56430;48.154;16.458;2023-10-31T02:26:27;3.97;;;0.93;;
69310;SDS011;56430;48.154;16.458;2023-10-31T02:28:55;4.43;;;0.73;;
69310;SDS011;56430;48.154;16.458;2023-10-31T02:31:23;3.25;;;0.85;;
69310;SDS011;56430;48.154;16.458;2023-10-31T02:33:50;4.07;;;1.10;;
69310;SDS011;56430;48.154;16.458;2023-10-31T02:36:17;3.70;;;1.13;;
69310;SDS011;56430;48.154;16.458;2023-10-31T02:38:45;3.13;;;0.90;;
69310;SDS011;56430;48.154;16.458;2023-10-31T02:41:14;4.10;;;0.95;;
69310;SDS011;56430;48.154;16.458;2023-10-31T02:43:41;4.45;;;1.33;;
69310;SDS011;56430;48.154;16.458;2023-10-31T02:46:08;4.03;;;1.10;;
69310;SDS011;56430;48.154;16.458;2023-10-31T02:48:37;6.35;;;1.23;;
69310;SDS011;56430;48.154;16.458;2023-10-31T02:51:05;4.27;;;1.23;;
69310;SDS011;56430;48.154;16.458;2023-10-31T02:53:33;4.13;;;1.00;;
69310;SDS011;56430;48.154;16.458;2023-10-31T02:56:00;3.55;;;1.10;;
69310;SDS011;56430;48.154;16.458;2023-10-31T02:58:28;6.22;;;1.02;;
69310;SDS011;56430;48.154;16.458;2023-10-31T03:00:56;5.65;;;1.15;;
69310;SDS011;56430;48.154;16.458;2023-10-31T03:03:23;3.77;;;1.20;;
69310;SDS011;56430;48.154;16.458;2023-10-31T03:05:50;6.47;;;1.00;;
69310;SDS011;56430;48.154;16.458;2023-10-31T03:08:17;4.32;;;1.00;;
69310;SDS011;56430;48.154;16.458;2023-10-31T03:10:47;4.70;;;0.93;;
69310;SDS011;56430;48.154;16.458;2023-10-31T03:13:16;5.38;;;1.83;;
69310;SDS011;56430;48.154;16.458;2023-10-31T03:15:44;4.87;;;1.07;;
69310;SDS011;56430;48.154;16.458;2023-10-31T03:18:12;3.28;;;0.82;;
69310;SDS011;56430;48.154;16.458;2023-10-31T03:20:43;4.53;;;1.02;;
69310;SDS011;56430;48.154;16.458;2023-10-31T03:23:10;3.40;;;0.85;;
69310;SDS011;56430;48.154;16.458;2023-10-31T03:25:37;3.25;;;1.10;;
69310;SDS011;56430;48.154;16.458;2023-10-31T03:28:07;4.93;;;1.20;;
69310;SDS011;56430;48.154;16.458;2023-10-31T03:30:45;3.75;;;0.90;;
69310;SDS011;56430;48.154;16.458;2023-10-31T03:33:14;5.32;;;1.02;;
69310;SDS011;56430;48.154;16.458;2023-10-31T03:35:41;4.03;;;1.20;;
69310;SDS011;56430;48.154;16.458;2023-10-31T03:38:08;3.10;;;1.10;;
69310;SDS011;56430;48.154;16.458;2023-10-31T03:40:35;4.30;;;1.10;;
69310;SDS011;56430;48.154;16.458;2023-10-31T03:43:03;4.63;;;1.05;;
69310;SDS011;56430;48.154;16.458;2023-10-31T03:45:30;6.07;;;0.90;;
69310;SDS011;56430;48.154;16.458;2023-10-31T03:47:58;2.67;;;0.90;;
69310;SDS011;56430;48.154;16.458;2023-10-31T03:50:25;4.78;;;1.10;;
69310;SDS011;56430;48.154;16.458;2023-10-31T03:52:53;3.80;;;0.90;;
69310;SDS011;56430;48.154;16.458;2023-10-31T03:55:20;2.53;;;0.82;;
69310;SDS011;56430;48.154;16.458;2023-10-31T03:57:47;6.88;;;1.55;;
69310;SDS011;56430;48.154;16.458;2023-10-31T04:00:15;2.10;;;0.50;;
69310;SDS011;56430;48.154;16.458;2023-10-31T04:02:42;1.17;;;0.13;;
69310;SDS011;56430;48.154;16.458;2023-10-31T04:05:11;1.60;;;0.10;;
69310;SDS011;56430;48.154;16.458;2023-10-31T04:07:41;1.20;;;0.10;;
69310;SDS011;56430;48.154;16.458;2023-10-31T04:10:08;0.98;;;0.10;;
69310;SDS011;56430;48.154;16.458;2023-10-31T04:12:36;0.77;;;0.10;;
69310;SDS011;56430;48.154;16.458;2023-10-31T04:15:03;1.02;;;0.10;;
69310;SDS011;56430;48.154;16.458;2023-10-31T04:17:31;0.80;;;0.10;;
69310;SDS011;56430;48.154;16.458;2023-10-31T04:19:58;0.65;;;0.00;;
69310;SDS011;56430;48.154;16.458;2023-10-31T04:22:27;1.67;;;0.00;;
69310;SDS011;56430;48.154;16.458;2023-10-31T04:24:55;0.70;;;0.10;;
69310;SDS011;56430;48.154;16.458;2023-10-31T04:27:22;0.70;;;0.10;;
69310;SDS011;56430;48.154;16.458;2023-10-31T04:29:49;0.80;;;0.07;;
69310;SDS011;56430;48.154;16.458;2023-10-31T04:32:17;0.50;;;0.03;;
69310;SDS011;56430;48.154;16.458;2023-10-31T04:34:44;0.77;;;0.08;;
69310;SDS011;56430;48.154;16.458;2023-10-31T04:37:11;1.05;;;0.13;;
69310;SDS011;56430;48.154;16.458;2023-10-31T04:39:39;0.98;;;0.10;;
69310;SDS011;56430;48.154;16.458;2023-10-31T04:42:07;0.83;;;0.10;;
69310;SDS011;56430;48.154;16.458;2023-10-31T04:44:34;1.77;;;0.10;;
69310;SDS011;56430;48.154;16.458;2023-10-31T04:47:01;0.93;;;0.08;;
69310;SDS011;56430;48.154;16.458;2023-10-31T04:49:28;0.88;;;0.10;;
69310;SDS011;56430;48.154;16.458;2023-10-31T04:51:55;1.73;;;0.10;;
69310;SDS011;56430;48.154;16.458;2023-10-31T04:54:22;0.97;;;0.20;;
69310;SDS011;56430;48.154;16.458;2023-10-31T04:56:51;1.13;;;0.10;;
69310;SDS011;56430;48.154;16.458;2023-10-31T04:59:18;0.90;;;0.10;;
69310;SDS011;56430;48.154;16.458;2023-10-31T05:01:48;1.00;;;0.10;;
69310;SDS011;56430;48.154;16.458;2023-10-31T05:04:16;2.38;;;0.20;;
69310;SDS011;56430;48.154;16.458;2023-10-31T05:06:43;0.80;;;0.10;;
69310;SDS011;56430;48.154;16.458;2023-10-31T05:09:11;0.93;;;0.10;;
69310;SDS011;56430;48.154;16.458;2023-10-31T05:11:39;0.98;;;0.10;;
69310;SDS011;56430;48.154;16.458;2023-10-31T05:14:08;0.80;;;0.10;;
69310;SDS011;56430;48.154;16.458;2023-10-31T05:16:40;1.60;;;0.30;;
69310;SDS011;56430;48.154;16.458;2023-10-31T05:19:07;1.90;;;0.10;;
69310;SDS011;56430;48.154;16.458;2023-10-31T05:21:34;1.45;;;0.20;;
69310;SDS011;56430;48.154;16.458;2023-10-31T05:24:02;1.63;;;0.20;;
69310;SDS011;56430;48.154;16.458;2023-10-31T05:26:29;1.88;;;0.20;;
69310;SDS011;56430;48.154;16.458;2023-10-31T05:28:56;1.15;;;0.10;;
69310;SDS011;56430;48.154;16.458;2023-10-31T05:31:25;2.47;;;0.50;;
69310;SDS011;56430;48.154;16.458;2023-10-31T05:33:52;1.90;;;0.40;;
69310;SDS011;56430;48.154;16.458;2023-10-31T05:36:19;1.17;;;0.10;;
69310;SDS011;56430;48.154;16.458;2023-10-31T05:38:47;1.88;;;0.30;;
69310;SDS011;56430;48.154;16.458;2023-10-31T05:41:14;1.77;;;0.30;;
69310;SDS011;56430;48.154;16.458;2023-10-31T05:43:41;1.67;;;0.30;;
69310;SDS011;56430;48.154;16.458;2023-10-31T05:46:09;2.92;;;0.30;;
69310;SDS011;56430;48.154;16.458;2023-10-31T05:48:40;3.45;;;0.77;;
69310;SDS011;56430;48.154;16.458;2023-10-31T05:51:10;4.78;;;1.25;;
69310;SDS011;56430;48.154;16.458;2023-10-31T05:53:39;3.50;;;0.50;;
69310;SDS011;56430;48.154;16.458;2023-10-31T05:56:07;1.87;;;0.40;;
69310;SDS011;56430;48.154;16.458;2023-10-31T05:58:36;1.92;;;0.25;;
69310;SDS011;56430;48.154;16.458;2023-10-31T06:01:03;1.08;;;0.10;;
69310;SDS011;56430;48.154;16.458;2023-10-31T06:03:30;1.20;;;0.20;;
69310;SDS011;56430;48.154;16.458;2023-10-31T06:05:59;1.13;;;0.10;;
69310;SDS011;56430;48.154;16.458;2023-10-31T06:08:26;1.37;;;0.10;;
69310;SDS011;56430;48.154;16.458;2023-10-31T06:10:55;0.73;;;0.10;;
69310;SDS011;56430;48.154;16.458;2023-10-31T06:13:22;0.82;;;0.10;;
69310;SDS011;56430;48.154;16.458;2023-10-31T06:15:51;0.75;;;0.00;;
69310;SDS011;56430;48.154;16.458;2023-10-31T06:18:18;0.73;;;0.10;;
69310;SDS011;56430;48.154;16.458;2023-10-31T06:20:45;1.43;;;0.23;;
69310;SDS011;56430;48.154;16.458;2023-10-31T06:23:14;1.33;;;0.10;;
69310;SDS011;56430;48.154;16.458;2023-10-31T06:25:41;1.08;;;0.10;;
69310;SDS011;56430;48.154;16.458;2023-10-31T06:28:09;2.88;;;0.03;;
69310;SDS011;56430;48.154;16.458;2023-10-31T06:30:36;2.65;;;0.30;;
69310;SDS011;56430;48.154;16.458;2023-10-31T06:33:03;0.70;;;0.00;;
69310;SDS011;56430;48.154;16.458;2023-10-31T06:35:30;1.00;;;0.05;;
69310;SDS011;56430;48.154;16.458;2023-10-31T06:37:57;0.70;;;0.03;;
69310;SDS011;56430;48.154;16.458;2023-10-31T06:40:26;0.90;;;0.00;;
69310;SDS011;56430;48.154;16.458;2023-10-31T06:42:53;0.65;;;0.00;;
69310;SDS011;56430;48.154;16.458;2023-10-31T06:45:20;0.80;;;0.10;;
69310;SDS011;56430;48.154;16.458;2023-10-31T06:47:48;0.55;;;0.00;;
69310;SDS011;56430;48.154;16.458;2023-10-31T06:50:15;0.50;;;0.00;;
69310;SDS011;56430;48.154;16.458;2023-10-31T06:52:42;0.40;;;0.00;;
69310;SDS011;56430;48.154;16.458;2023-10-31T06:55:09;0.30;;;0.00;;
69310;SDS011;56430;48.154;16.458;2023-10-31T06:57:38;0.47;;;0.00;;
69310;SDS011;56430;48.154;16.458;2023-10-31T07:00:05;0.65;;;0.00;;
69310;SDS011;56430;48.154;16.458;2023-10-31T07:02:34;1.67;;;0.20;;
69310;SDS011;56430;48.154;16.458;2023-10-31T07:05:01;1.10;;;0.10;;
69310;SDS011;56430;48.154;16.458;2023-10-31T07:07:29;0.40;;;0.00;;
69310;SDS011;56430;48.154;16.458;2023-10-31T07:09:57;0.70;;;0.00;;
69310;SDS011;56430;48.154;16.458;2023-10-31T07:12:24;1.02;;;0.10;;
69310;SDS011;56430;48.154;16.458;2023-10-31T07:14:53;2.30;;;0.38;;
69310;SDS011;56430;48.154;16.458;2023-10-31T07:17:20;0.50;;;0.00;;
69310;SDS011;56430;48.154;16.458;2023-10-31T07:19:47;0.35;;;0.00;;
69310;SDS011;56430;48.154;16.458;2023-10-31T07:22:14;0.43;;;0.00;;
69310;SDS011;56430;48.154;16.458;2023-10-31T07:24:41;1.25;;;0.32;;
69310;SDS011;56430;48.154;16.458;2023-10-31T07:27:09;0.50;;;0.00;;
69310;SDS011;56430;48.154;16.458;2023-10-31T07:29:38;0.40;;;0.00;;
69310;SDS011;56430;48.154;16.458;2023-10-31T07:32:07;0.40;;;0.00;;
69310;SDS011;56430;48.154;16.458;2023-10-31T07:34:34;0.47;;;0.07;;
69310;SDS011;56430;48.154;16.458;2023-10-31T07:37:02;1.15;;;0.00;;
69310;SDS011;56430;48.154;16.458;2023-10-31T07:39:29;0.40;;;0.00;;
69310;SDS011;56430;48.154;16.458;2023-10-31T07:41:56;0.40;;;0.00;;
69310;SDS011;56430;48.154;16.458;2023-10-31T07:44:23;1.65;;;0.20;;
69310;SDS011;56430;48.154;16.458;2023-10-31T07:46:50;0.20;;;0.00;;
69310;SDS011;56430;48.154;16.458;2023-10-31T07:49:19;0.35;;;0.00;;
69310;SDS011;56430;48.154;16.458;2023-10-31T07:51:49;0.52;;;0.00;;
69310;SDS011;56430;48.154;16.458;2023-10-31T07:54:16;0.20;;;0.00;;
69310;SDS011;56430;48.154;16.458;2023-10-31T07:56:44;1.60;;;0.20;;
69310;SDS011;56430;48.154;16.458;2023-10-31T07:59:12;1.00;;;0.10;;
69310;SDS011;56430;48.154;16.458;2023-10-31T08:01:39;0.73;;;0.00;;
69310;SDS011;56430;48.154;16.458;2023-10-31T08:04:07;0.63;;;0.00;;
69310;SDS011;56430;48.154;16.458;2023-10-31T08:06:35;0.47;;;0.00;;
69310;SDS011;56430;48.154;16.458;2023-10-31T08:09:02;1.25;;;0.00;;
69310;SDS011;56430;48.154;16.458;2023-10-31T08:11:29;0.70;;;0.10;;
69310;SDS011;56430;48.154;16.458;2023-10-31T08:13:58;0.40;;;0.00;;
69310;SDS011;56430;48.154;16.458;2023-10-31T08:16:25;0.68;;;0.00;;
69310;SDS011;56430;48.154;16.458;2023-10-31T08:18:53;0.40;;;0.00;;
69310;SDS011;56430;48.154;16.458;2023-10-31T08:21:20;0.80;;;0.00;;
69310;SDS011;56430;48.154;16.458;2023-10-31T08:23:49;0.50;;;0.00;;
69310;SDS011;56430;48.154;16.458;2023-10-31T08:26:16;1.02;;;0.10;;
69310;SDS011;56430;48.154;16.458;2023-10-31T08:28:43;1.17;;;0.20;;
69310;SDS011;56430;48.154;16.458;2023-10-31T08:31:11;0.65;;;0.00;;
69310;SDS011;56430;48.154;16.458;2023-10-31T08:33:38;1.30;;;0.03;;
69310;SDS011;56430;48.154;16.458;2023-10-31T08:36:05;0.77;;;0.10;;
69310;SDS011;56430;48.154;16.458;2023-10-31T08:38:33;0.95;;;0.10;;
69310;SDS011;56430;48.154;16.458;2023-10-31T08:41:01;1.10;;;0.10;;
69310;SDS011;56430;48.154;16.458;2023-10-31T08:43:29;2.05;;;0.10;;
69310;SDS011;56430;48.154;16.458;2023-10-31T08:45:56;1.00;;;0.00;;
69310;SDS011;56430;48.154;16.458;2023-10-31T08:48:23;1.07;;;0.10;;
69310;SDS011;56430;48.154;16.458;2023-10-31T08:50:50;2.63;;;0.10;;
69310;SDS011;56430;48.154;16.458;2023-10-31T08:53:17;1.67;;;0.20;;
69310;SDS011;56430;48.154;16.458;2023-10-31T08:55:45;0.40;;;0.00;;
69310;SDS011;56430;48.154;16.458;2023-10-31T08:58:14;5.45;;;0.30;;
69310;SDS011;56430;48.154;16.458;2023-10-31T09:00:43;1.00;;;0.00;;
69310;SDS011;56430;48.154;16.458;2023-10-31T09:03:10;0.75;;;0.10;;
69310;SDS011;56430;48.154;16.458;2023-10-31T09:05:38;0.73;;;0.10;;
69310;SDS011;56430;48.154;16.458;2023-10-31T09:08:05;1.00;;;0.00;;
69310;SDS011;56430;48.154;16.458;2023-10-31T09:10:32;1.55;;;0.05;;
69310;SDS011;56430;48.154;16.458;2023-10-31T09:13:00;0.90;;;0.10;;
69310;SDS011;56430;48.154;16.458;2023-10-31T09:15:29;0.68;;;0.00;;
69310;SDS011;56430;48.154;16.458;2023-10-31T09:17:56;0.88;;;0.00;;
69310;SDS011;56430;48.154;16.458;2023-10-31T09:20:23;0.63;;;0.00;;
69310;SDS011;56430;48.154;16.458;2023-10-31T09:22:50;0.90;;;0.00;;
69310;SDS011;56430;48.154;16.458;2023-10-31T09:25:18;2.07;;;0.10;;
69310;SDS011;56430;48.154;16.458;2023-10-31T09:27:45;0.80;;;0.00;;
69310;SDS011;56430;48.154;16.458;2023-10-31T09:30:12;0.50;;;0.00;;
69310;SDS011;56430;48.154;16.458;2023-10-31T09:32:41;1.55;;;0.10;;
69310;SDS011;56430;48.154;16.458;2023-10-31T09:35:08;1.05;;;0.10;;
69310;SDS011;56430;48.154;16.458;2023-10-31T09:37:36;0.73;;;0.00;;
69310;SDS011;56430;48.154;16.458;2023-10-31T09:40:03;0.70;;;0.00;;
69310;SDS011;56430;48.154;16.458;2023-10-31T09:42:31;0.60;;;0.00;;
69310;SDS011;56430;48.154;16.458;2023-10-31T09:44:58;3.08;;;0.15;;
69310;SDS011;56430;48.154;16.458;2023-10-31T09:47:25;1.48;;;0.10;;
69310;SDS011;56430;48.154;16.458;2023-10-31T09:49:54;0.70;;;0.00;;
69310;SDS011;56430;48.154;16.458;2023-10-31T09:52:21;1.10;;;0.10;;
69310;SDS011;56430;48.154;16.458;2023-10-31T09:54:49;1.77;;;0.20;;
69310;SDS011;56430;48.154;16.458;2023-10-31T09:57:19;1.20;;;0.10;;
69310;SDS011;56430;48.154;16.458;2023-10-31T09:59:46;1.67;;;0.20;;
69310;SDS011;56430;48.154;16.458;2023-10-31T10:02:14;3.53;;;0.60;;
69310;SDS011;56430;48.154;16.458;2023-10-31T10:04:41;1.00;;;0.10;;
69310;SDS011;56430;48.154;16.458;2023-10-31T10:07:09;2.72;;;0.17;;
69310;SDS011;56430;48.154;16.458;2023-10-31T10:09:40;2.35;;;0.10;;
69310;SDS011;56430;48.154;16.458;2023-10-31T10:12:08;2.38;;;0.10;;
69310;SDS011;56430;48.154;16.458;2023-10-31T10:14:38;1.10;;;0.13;;
69310;SDS011;56430;48.154;16.458;2023-10-31T10:17:13;1.00;;;0.17;;
69310;SDS011;56430;48.154;16.458;2023-10-31T10:19:42;1.17;;;0.10;;
69310;SDS011;56430;48.154;16.458;2023-10-31T10:22:11;1.35;;;0.10;;
69310;SDS011;56430;48.154;16.458;2023-10-31T10:24:40;1.70;;;0.10;;
69310;SDS011;56430;48.154;16.458;2023-10-31T10:27:08;1.13;;;0.10;;
69310;SDS011;56430;48.154;16.458;2023-10-31T10:29:34;2.97;;;0.30;;
69310;SDS011;56430;48.154;16.458;2023-10-31T10:32:01;2.38;;;0.20;;
69310;SDS011;56430;48.154;16.458;2023-10-31T10:34:33;2.95;;;0.10;;
69310;SDS011;56430;48.154;16.458;2023-10-31T10:37:01;1.73;;;0.10;;
69310;SDS011;56430;48.154;16.458;2023-10-31T10:39:33;1.37;;;0.10;;
69310;SDS011;56430;48.154;16.458;2023-10-31T10:42:02;0.93;;;0.10;;
69310;SDS011;56430;48.154;16.458;2023-10-31T10:44:33;0.80;;;0.10;;
69310;SDS011;56430;48.154;16.458;2023-10-31T10:47:02;1.13;;;0.20;;
69310;SDS011;56430;48.154;16.458;2023-10-31T10:49:32;0.95;;;0.10;;
69310;SDS011;56430;48.154;16.458;2023-10-31T10:52:01;2.23;;;0.10;;
69310;SDS011;56430;48.154;16.458;2023-10-31T10:54:40;1.08;;;0.10;;
69310;SDS011;56430;48.154;16.458;2023-10-31T10:57:14;2.10;;;0.20;;
69310;SDS011;56430;48.154;16.458;2023-10-31T10:59:42;3.45;;;0.20;;
69310;SDS011;56430;48.154;16.458;2023-10-31T11:02:10;1.05;;;0.10;;
69310;SDS011;56430;48.154;16.458;2023-10-31T11:04:38;2.53;;;0.10;;
69310;SDS011;56430;48.154;16.458;2023-10-31T11:07:06;1.52;;;0.10;;
69310;SDS011;56430;48.154;16.458;2023-10-31T11:09:33;2.13;;;0.20;;
69310;SDS011;56430;48.154;16.458;2023-10-31T11:12:02;1.20;;;0.30;;
69310;SDS011;56430;48.154;16.458;2023-10-31T11:18:02;0.60;;;0.10;;
69310;SDS011;56430;48.154;16.458;2023-10-31T11:20:29;1.17;;;0.10;;
69310;SDS011;56430;48.154;16.458;2023-10-31T11:22:58;2.90;;;0.10;;
69310;SDS011;56430;48.154;16.458;2023-10-31T11:25:30;1.27;;;0.10;;
69310;SDS011;56430;48.154;16.458;2023-10-31T11:28:10;3.83;;;0.30;;
69310;SDS011;56430;48.154;16.458;2023-10-31T11:30:39;3.00;;;0.20;;
69310;SDS011;56430;48.154;16.458;2023-10-31T11:33:07;1.20;;;0.10;;
69310;SDS011;56430;48.154;16.458;2023-10-31T11:35:38;1.00;;;0.08;;
69310;SDS011;56430;48.154;16.458;2023-10-31T11:38:06;2.65;;;0.10;;
69310;SDS011;56430;48.154;16.458;2023-10-31T11:40:34;1.52;;;0.10;;
69310;SDS011;56430;48.154;16.458;2023-10-31T11:43:03;0.70;;;0.00;;
69310;SDS011;56430;48.154;16.458;2023-10-31T11:45:33;3.67;;;0.10;;
69310;SDS011;56430;48.154;16.458;2023-10-31T11:48:01;1.95;;;0.10;;
69310;SDS011;56430;48.154;16.458;2023-10-31T11:50:30;2.13;;;0.10;;
69310;SDS011;56430;48.154;16.458;2023-10-31T11:52:58;1.00;;;0.10;;
69310;SDS011;56430;48.154;16.458;2023-10-31T11:55:26;2.07;;;0.40;;
69310;SDS011;56430;48.154;16.458;2023-10-31T11:57:54;1.35;;;0.17;;
69310;SDS011;56430;48.154;16.458;2023-10-31T12:00:23;0.90;;;0.10;;
69310;SDS011;56430;48.154;16.458;2023-10-31T12:02:57;1.10;;;0.10;;
69310;SDS011;56430;48.154;16.458;2023-10-31T12:05:24;0.70;;;0.00;;
69310;SDS011;56430;48.154;16.458;2023-10-31T12:07:53;1.67;;;0.10;;
69310;SDS011;56430;48.154;16.458;2023-10-31T12:10:24;1.83;;;0.10;;
69310;SDS011;56430;48.154;16.458;2023-10-31T12:12:52;0.90;;;0.10;;
69310;SDS011;56430;48.154;16.458;2023-10-31T12:15:20;2.53;;;0.10;;
69310;SDS011;56430;48.154;16.458;2023-10-31T12:17:49;1.45;;;0.10;;
69310;SDS011;56430;48.154;16.458;2023-10-31T12:20:16;1.37;;;0.10;;
69310;SDS011;56430;48.154;16.458;2023-10-31T12:22:43;1.77;;;0.00;;
69310;SDS011;56430;48.154;16.458;2023-10-31T12:25:11;0.88;;;0.20;;
69310;SDS011;56430;48.154;16.458;2023-10-31T12:27:41;1.13;;;0.10;;
69310;SDS011;56430;48.154;16.458;2023-10-31T12:30:10;0.88;;;0.10;;
69310;SDS011;56430;48.154;16.458;2023-10-31T12:32:37;1.50;;;0.03;;
69310;SDS011;56430;48.154;16.458;2023-10-31T12:35:07;0.88;;;0.00;;
69310;SDS011;56430;48.154;16.458;2023-10-31T12:37:35;1.27;;;0.10;;
69310;SDS011;56430;48.154;16.458;2023-10-31T12:40:03;2.03;;;0.00;;
69310;SDS011;56430;48.154;16.458;2023-10-31T12:42:34;0.77;;;0.00;;
69310;SDS011;56430;48.154;16.458;2023-10-31T12:45:02;0.50;;;0.00;;
69310;SDS011;56430;48.154;16.458;2023-10-31T12:47:29;4.50;;;0.80;;
69310;SDS011;56430;48.154;16.458;2023-10-31T12:50:08;3.25;;;0.50;;
69310;SDS011;56430;48.154;16.458;2023-10-31T12:52:45;1.17;;;0.10;;
69310;SDS011;56430;48.154;16.458;2023-10-31T12:55:13;0.90;;;0.10;;
69310;SDS011;56430;48.154;16.458;2023-10-31T12:57:41;1.50;;;0.10;;
69310;SDS011;56430;48.154;16.458;2023-10-31T13:00:09;1.30;;;0.10;;
69310;SDS011;56430;48.154;16.458;2023-10-31T13:02:38;1.25;;;0.10;;
69310;SDS011;56430;48.154;16.458;2023-10-31T13:05:11;0.98;;;0.10;;
69310;SDS011;56430;48.154;16.458;2023-10-31T13:07:39;2.05;;;0.10;;
69310;SDS011;56430;48.154;16.458;2023-10-31T13:10:07;0.90;;;0.10;;
69310;SDS011;56430;48.154;16.458;2023-10-31T13:12:35;0.95;;;0.10;;
69310;SDS011;56430;48.154;16.458;2023-10-31T13:15:03;1.38;;;0.10;;
69310;SDS011;56430;48.154;16.458;2023-10-31T13:17:32;1.52;;;0.10;;
69310;SDS011;56430;48.154;16.458;2023-10-31T13:20:02;0.80;;;0.10;;
69310;SDS011;56430;48.154;16.458;2023-10-31T13:22:31;1.73;;;0.27;;
69310;SDS011;56430;48.154;16.458;2023-10-31T13:24:58;1.13;;;0.13;;
69310;SDS011;56430;48.154;16.458;2023-10-31T13:27:25;1.60;;;0.10;;
69310;SDS011;56430;48.154;16.458;2023-10-31T13:29:53;1.00;;;0.10;;
69310;SDS011;56430;48.154;16.458;2023-10-31T13:32:20;1.50;;;0.10;;
69310;SDS011;56430;48.154;16.458;2023-10-31T13:34:47;2.13;;;0.10;;
69310;SDS011;56430;48.154;16.458;2023-10-31T13:37:14;1.08;;;0.10;;
69310;SDS011;56430;48.154;16.458;2023-10-31T13:39:43;0.85;;;0.08;;
69310;SDS011;56430;48.154;16.458;2023-10-31T13:42:10;1.05;;;0.10;;
69310;SDS011;56430;48.154;16.458;2023-10-31T13:44:37;1.00;;;0.10;;
69310;SDS011;56430;48.154;16.458;2023-10-31T13:47:04;1.10;;;0.13;;
69310;SDS011;56430;48.154;16.458;2023-10-31T13:49:31;1.20;;;0.20;;
69310;SDS011;56430;48.154;16.458;2023-10-31T13:51:59;0.80;;;0.03;;
69310;SDS011;56430;48.154;16.458;2023-10-31T13:54:26;1.48;;;0.10;;
69310;SDS011;56430;48.154;16.458;2023-10-31T13:56:54;0.85;;;0.10;;
69310;SDS011;56430;48.154;16.458;2023-10-31T13:59:21;1.50;;;0.10;;
69310;SDS011;56430;48.154;16.458;2023-10-31T14:01:49;1.48;;;0.10;;
69310;SDS011;56430;48.154;16.458;2023-10-31T14:04:17;1.30;;;0.10;;
69310;SDS011;56430;48.154;16.458;2023-10-31T14:06:44;1.50;;;0.17;;
69310;SDS011;56430;48.154;16.458;2023-10-31T14:09:12;1.05;;;0.10;;
69310;SDS011;56430;48.154;16.458;2023-10-31T14:11:40;1.27;;;0.10;;
69310;SDS011;56430;48.154;16.458;2023-10-31T14:14:08;1.45;;;0.10;;
69310;SDS011;56430;48.154;16.458;2023-10-31T14:16:36;1.73;;;0.20;;
69310;SDS011;56430;48.154;16.458;2023-10-31T14:19:04;1.33;;;0.10;;
69310;SDS011;56430;48.154;16.458;2023-10-31T14:21:32;1.35;;;0.10;;
69310;SDS011;56430;48.154;16.458;2023-10-31T14:23:59;1.60;;;0.20;;
69310;SDS011;56430;48.154;16.458;2023-10-31T14:26:28;1.42;;;0.10;;
69310;SDS011;56430;48.154;16.458;2023-10-31T14:28:58;3.85;;;0.20;;
69310;SDS011;56430;48.154;16.458;2023-10-31T14:31:26;1.40;;;0.17;;
69310;SDS011;56430;48.154;16.458;2023-10-31T14:33:54;1.23;;;0.10;;
69310;SDS011;56430;48.154;16.458;2023-10-31T14:36:21;1.03;;;0.20;;
69310;SDS011;56430;48.154;16.458;2023-10-31T14:38:48;2.03;;;0.20;;
69310;SDS011;56430;48.154;16.458;2023-10-31T14:41:15;1.40;;;0.20;;